sensor_id;sensor_type;location;lat;lon;timestamp;pressure;altitude;pressure_sealevel;temperature;humidity
21706;BME280;11014;53.076;18.208;2023-05-14T00:02:02;102008.78;;;12.04;59.52
21706;BME280;11014;53.076;18.208;2023-05-14T00:04:30;102018.75;;;11.97;59.30
21706;BME280;11014;53.076;18.208;2023-05-14T00:06:59;102002.34;;;11.92;59.73
21706;BME280;11014;53.076;18.208;2023-05-14T00:09:27;102005.66;;;11.87;59.72
21706;BME280;11014;53.076;18.208;2023-05-14T00:11:57;102004.63;;;11.81;59.70
21706;BME280;11014;53.076;18.208;2023-05-14T00:14:25;102008.97;;;11.76;59.82
21706;BME280;11014;53.076;18.208;2023-05-14T00:16:54;102001.03;;;11.68;59.97
21706;BME280;11014;53.076;18.208;2023-05-14T00:19:22;102001.84;;;11.62;60.09
21706;BME280;11014;53.076;18.208;2023-05-14T00:21:52;102006.41;;;11.55;59.93
21706;BME280;11014;53.076;18.208;2023-05-14T00:24:20;102005.34;;;11.49;60.36
21706;BME280;11014;53.076;18.208;2023-05-14T00:26:48;101995.16;;;11.38;60.52
21706;BME280;11014;53.076;18.208;2023-05-14T00:29:17;101997.66;;;11.33;60.62
21706;BME280;11014;53.076;18.208;2023-05-14T00:31:48;102000.13;;;11.28;60.74
21706;BME280;11014;53.076;18.208;2023-05-14T00:34:18;101998.84;;;11.24;60.96
21706;BME280;11014;53.076;18.208;2023-05-14T00:36:50;101994.91;;;11.20;61.01
21706;BME280;11014;53.076;18.208;2023-05-14T00:39:24;101994.66;;;11.15;60.88
21706;BME280;11014;53.076;18.208;2023-05-14T00:41:53;101988.25;;;11.16;60.83
21706;BME280;11014;53.076;18.208;2023-05-14T00:44:21;101994.22;;;11.05;61.32
21706;BME280;11014;53.076;18.208;2023-05-14T00:46:51;101987.16;;;10.97;61.33
21706;BME280;11014;53.076;18.208;2023-05-14T00:49:20;101995.63;;;10.94;61.49
21706;BME280;11014;53.076;18.208;2023-05-14T00:51:48;101998.69;;;10.91;61.49
21706;BME280;11014;53.076;18.208;2023-05-14T00:54:17;101990.84;;;10.90;61.52
21706;BME280;11014;53.076;18.208;2023-05-14T00:56:47;101993.28;;;10.85;61.33
21706;BME280;11014;53.076;18.208;2023-05-14T00:59:15;101992.44;;;10.78;61.58
21706;BME280;11014;53.076;18.208;2023-05-14T01:01:44;101985.97;;;10.65;61.85
21706;BME280;11014;53.076;18.208;2023-05-14T01:04:12;101990.66;;;10.57;62.25
21706;BME280;11014;53.076;18.208;2023-05-14T01:09:43;102001.97;;;10.52;62.23
21706;BME280;11014;53.076;18.208;2023-05-14T01:15:27;101999.44;;;10.44;62.66
21706;BME280;11014;53.076;18.208;2023-05-14T01:18:05;102006.19;;;10.34;62.47
21706;BME280;11014;53.076;18.208;2023-05-14T01:20:35;101997.44;;;10.25;62.84
21706;BME280;11014;53.076;18.208;2023-05-14T01:23:03;102007.75;;;10.22;62.98
21706;BME280;11014;53.076;18.208;2023-05-14T01:25:32;101999.88;;;10.20;62.85
21706;BME280;11014;53.076;18.208;2023-05-14T01:28:14;101995.97;;;10.23;63.10
21706;BME280;11014;53.076;18.208;2023-05-14T01:31:13;101991.44;;;10.23;63.12
21706;BME280;11014;53.076;18.208;2023-05-14T01:33:47;101995.72;;;10.18;62.66
21706;BME280;11014;53.076;18.208;2023-05-14T01:36:16;101989.91;;;10.14;62.67
21706;BME280;11014;53.076;18.208;2023-05-14T01:38:46;101982.81;;;10.06;63.06
21706;BME280;11014;53.076;18.208;2023-05-14T01:41:17;101988.38;;;10.05;62.90
21706;BME280;11014;53.076;18.208;2023-05-14T01:43:46;101984.78;;;9.98;63.14
21706;BME280;11014;53.076;18.208;2023-05-14T01:46:18;101991.38;;;9.95;63.03
21706;BME280;11014;53.076;18.208;2023-05-14T01:48:48;101980.41;;;9.90;63.31
21706;BME280;11014;53.076;18.208;2023-05-14T01:51:17;101973.56;;;9.88;63.25
21706;BME280;11014;53.076;18.208;2023-05-14T01:53:45;101988.81;;;9.87;63.34
21706;BME280;11014;53.076;18.208;2023-05-14T01:56:13;101980.16;;;9.85;63.15
21706;BME280;11014;53.076;18.208;2023-05-14T01:58:42;101974.31;;;9.82;63.19
21706;BME280;11014;53.076;18.208;2023-05-14T02:01:11;101980.44;;;9.76;63.28
21706;BME280;11014;53.076;18.208;2023-05-14T02:03:39;101982.88;;;9.71;63.46
21706;BME280;11014;53.076;18.208;2023-05-14T02:06:08;101971.53;;;9.69;63.46
21706;BME280;11014;53.076;18.208;2023-05-14T02:08:36;101975.41;;;9.66;63.52
21706;BME280;11014;53.076;18.208;2023-05-14T02:11:04;101983.59;;;9.58;63.89
21706;BME280;11014;53.076;18.208;2023-05-14T02:13:34;101977.31;;;9.51;63.80
21706;BME280;11014;53.076;18.208;2023-05-14T02:16:03;101977.25;;;9.44;64.08
21706;BME280;11014;53.076;18.208;2023-05-14T02:18:32;101965.63;;;9.37;64.33
21706;BME280;11014;53.076;18.208;2023-05-14T02:21:00;101976.91;;;9.33;64.68
21706;BME280;11014;53.076;18.208;2023-05-14T02:23:29;101967.59;;;9.29;64.42
21706;BME280;11014;53.076;18.208;2023-05-14T02:26:09;101965.47;;;9.24;64.53
21706;BME280;11014;53.076;18.208;2023-05-14T02:28:38;101964.22;;;9.20;64.82
21706;BME280;11014;53.076;18.208;2023-05-14T02:31:07;101967.63;;;9.14;64.83
21706;BME280;11014;53.076;18.208;2023-05-14T02:33:36;101964.31;;;9.12;64.93
21706;BME280;11014;53.076;18.208;2023-05-14T02:36:04;101962.00;;;9.09;65.03
21706;BME280;11014;53.076;18.208;2023-05-14T02:38:33;101959.88;;;9.05;65.08
21706;BME280;11014;53.076;18.208;2023-05-14T02:41:02;101965.81;;;9.00;65.19
21706;BME280;11014;53.076;18.208;2023-05-14T02:43:30;101963.50;;;8.97;64.90
21706;BME280;11014;53.076;18.208;2023-05-14T02:45:59;101963.03;;;8.93;64.97
21706;BME280;11014;53.076;18.208;2023-05-14T02:48:28;101965.28;;;8.90;65.01
21706;BME280;11014;53.076;18.208;2023-05-14T02:50:56;101962.13;;;8.86;65.26
21706;BME280;11014;53.076;18.208;2023-05-14T02:53:25;101970.91;;;8.80;65.14
21706;BME280;11014;53.076;18.208;2023-05-14T02:55:53;101966.75;;;8.78;65.47
21706;BME280;11014;53.076;18.208;2023-05-14T02:58:22;101966.59;;;8.79;65.40
21706;BME280;11014;53.076;18.208;2023-05-14T03:00:55;101962.25;;;8.78;65.44
21706;BME280;11014;53.076;18.208;2023-05-14T03:03:25;101967.78;;;8.77;65.59
21706;BME280;11014;53.076;18.208;2023-05-14T03:05:53;101960.13;;;8.74;65.34
21706;BME280;11014;53.076;18.208;2023-05-14T03:08:22;101962.81;;;8.74;65.41
21706;BME280;11014;53.076;18.208;2023-05-14T03:10:50;101960.13;;;8.74;65.69
21706;BME280;11014;53.076;18.208;2023-05-14T03:13:19;101957.81;;;8.71;65.55
21706;BME280;11014;53.076;18.208;2023-05-14T03:15:48;101952.81;;;8.68;65.94
21706;BME280;11014;53.076;18.208;2023-05-14T03:18:17;101958.53;;;8.65;65.97
21706;BME280;11014;53.076;18.208;2023-05-14T03:20:46;101960.59;;;8.63;66.06
21706;BME280;11014;53.076;18.208;2023-05-14T03:23:15;101962.59;;;8.61;66.53
21706;BME280;11014;53.076;18.208;2023-05-14T03:25:43;101955.59;;;8.60;66.38
21706;BME280;11014;53.076;18.208;2023-05-14T03:28:12;101956.44;;;8.60;66.67
21706;BME280;11014;53.076;18.208;2023-05-14T03:30:40;101950.72;;;8.63;66.80
21706;BME280;11014;53.076;18.208;2023-05-14T03:33:10;101949.31;;;8.67;66.54
21706;BME280;11014;53.076;18.208;2023-05-14T03:35:39;101950.16;;;8.68;66.64
21706;BME280;11014;53.076;18.208;2023-05-14T03:38:08;101958.19;;;8.68;67.03
21706;BME280;11014;53.076;18.208;2023-05-14T03:40:36;101954.88;;;8.66;67.15
21706;BME280;11014;53.076;18.208;2023-05-14T03:43:05;101947.63;;;8.66;67.23
21706;BME280;11014;53.076;18.208;2023-05-14T03:45:33;101950.16;;;8.68;67.54
21706;BME280;11014;53.076;18.208;2023-05-14T03:48:02;101946.25;;;8.70;67.41
21706;BME280;11014;53.076;18.208;2023-05-14T03:50:32;101945.06;;;8.73;67.49
21706;BME280;11014;53.076;18.208;2023-05-14T03:53:01;101937.66;;;8.75;67.82
21706;BME280;11014;53.076;18.208;2023-05-14T03:55:30;101942.66;;;8.78;67.88
21706;BME280;11014;53.076;18.208;2023-05-14T03:57:59;101942.75;;;8.84;67.75
21706;BME280;11014;53.076;18.208;2023-05-14T04:00:29;101944.00;;;8.88;67.83
21706;BME280;11014;53.076;18.208;2023-05-14T04:02:58;101944.47;;;8.92;68.02
21706;BME280;11014;53.076;18.208;2023-05-14T04:05:26;101950.72;;;8.99;67.96
21706;BME280;11014;53.076;18.208;2023-05-14T04:07:55;101948.34;;;9.04;68.06
21706;BME280;11014;53.076;18.208;2023-05-14T04:10:25;101939.53;;;9.10;68.38
21706;BME280;11014;53.076;18.208;2023-05-14T04:12:53;101937.78;;;9.17;68.44
21706;BME280;11014;53.076;18.208;2023-05-14T04:15:27;101937.84;;;9.24;68.38
21706;BME280;11014;53.076;18.208;2023-05-14T04:17:55;101935.88;;;9.32;68.63
21706;BME280;11014;53.076;18.208;2023-05-14T04:20:24;101937.59;;;9.40;68.71
21706;BME280;11014;53.076;18.208;2023-05-14T04:22:53;101942.66;;;9.49;68.97
21706;BME280;11014;53.076;18.208;2023-05-14T04:25:21;101940.03;;;9.56;68.97
21706;BME280;11014;53.076;18.208;2023-05-14T04:27:51;101937.03;;;9.66;69.13
21706;BME280;11014;53.076;18.208;2023-05-14T04:30:19;101942.09;;;9.75;69.14
21706;BME280;11014;53.076;18.208;2023-05-14T04:32:48;101936.38;;;9.85;69.27
21706;BME280;11014;53.076;18.208;2023-05-14T04:35:17;101931.50;;;9.95;69.41
21706;BME280;11014;53.076;18.208;2023-05-14T04:37:50;101934.69;;;10.05;69.25
21706;BME280;11014;53.076;18.208;2023-05-14T04:40:18;101940.34;;;10.17;69.72
21706;BME280;11014;53.076;18.208;2023-05-14T04:42:47;101937.97;;;10.28;69.75
21706;BME280;11014;53.076;18.208;2023-05-14T04:45:15;101944.47;;;10.40;69.96
21706;BME280;11014;53.076;18.208;2023-05-14T04:47:45;101938.53;;;10.51;70.09
21706;BME280;11014;53.076;18.208;2023-05-14T04:50:13;101939.44;;;10.65;70.33
21706;BME280;11014;53.076;18.208;2023-05-14T04:52:42;101940.34;;;10.79;70.21
21706;BME280;11014;53.076;18.208;2023-05-14T04:55:11;101939.38;;;10.93;70.42
21706;BME280;11014;53.076;18.208;2023-05-14T04:57:39;101940.03;;;11.08;70.13
21706;BME280;11014;53.076;18.208;2023-05-14T05:00:08;101928.06;;;11.23;70.20
21706;BME280;11014;53.076;18.208;2023-05-14T05:02:37;101937.22;;;11.42;70.10
21706;BME280;11014;53.076;18.208;2023-05-14T05:05:06;101929.41;;;11.60;70.26
21706;BME280;11014;53.076;18.208;2023-05-14T05:07:34;101925.94;;;11.79;69.85
21706;BME280;11014;53.076;18.208;2023-05-14T05:10:03;101923.66;;;11.96;69.64
21706;BME280;11014;53.076;18.208;2023-05-14T05:12:32;101924.06;;;12.13;69.57
21706;BME280;11014;53.076;18.208;2023-05-14T05:15:02;101922.78;;;12.28;69.17
21706;BME280;11014;53.076;18.208;2023-05-14T05:17:30;101919.03;;;12.42;69.06
21706;BME280;11014;53.076;18.208;2023-05-14T05:19:59;101914.00;;;12.59;68.73
21706;BME280;11014;53.076;18.208;2023-05-14T05:22:27;101909.78;;;12.76;68.32
21706;BME280;11014;53.076;18.208;2023-05-14T05:24:56;101909.91;;;12.94;68.09
21706;BME280;11014;53.076;18.208;2023-05-14T05:27:26;101905.06;;;13.16;67.64
21706;BME280;11014;53.076;18.208;2023-05-14T05:29:54;101904.06;;;13.42;67.24
21706;BME280;11014;53.076;18.208;2023-05-14T05:32:23;101905.09;;;13.72;66.32
21706;BME280;11014;53.076;18.208;2023-05-14T05:34:52;101905.47;;;14.00;65.43
21706;BME280;11014;53.076;18.208;2023-05-14T05:37:20;101900.88;;;14.25;64.50
21706;BME280;11014;53.076;18.208;2023-05-14T05:39:49;101898.59;;;14.47;63.91
21706;BME280;11014;53.076;18.208;2023-05-14T05:42:18;101898.94;;;14.69;63.21
21706;BME280;11014;53.076;18.208;2023-05-14T05:44:46;101900.13;;;14.91;62.37
21706;BME280;11014;53.076;18.208;2023-05-14T05:47:15;101893.00;;;15.08;62.00
21706;BME280;11014;53.076;18.208;2023-05-14T05:49:44;101896.28;;;15.28;61.42
21706;BME280;11014;53.076;18.208;2023-05-14T05:52:12;101886.00;;;15.49;60.88
21706;BME280;11014;53.076;18.208;2023-05-14T05:54:40;101892.75;;;15.69;60.09
21706;BME280;11014;53.076;18.208;2023-05-14T05:57:09;101893.00;;;15.91;60.04
21706;BME280;11014;53.076;18.208;2023-05-14T05:59:37;101894.06;;;16.13;58.97
21706;BME280;11014;53.076;18.208;2023-05-14T06:02:06;101891.84;;;16.33;57.78
21706;BME280;11014;53.076;18.208;2023-05-14T06:04:34;101883.78;;;16.50;57.21
21706;BME280;11014;53.076;18.208;2023-05-14T06:07:03;101886.00;;;16.65;56.21
21706;BME280;11014;53.076;18.208;2023-05-14T06:09:31;101889.53;;;16.77;55.59
21706;BME280;11014;53.076;18.208;2023-05-14T06:12:00;101884.28;;;16.87;54.51
21706;BME280;11014;53.076;18.208;2023-05-14T06:14:29;101888.88;;;16.98;54.43
21706;BME280;11014;53.076;18.208;2023-05-14T06:16:57;101884.69;;;17.07;54.38
21706;BME280;11014;53.076;18.208;2023-05-14T06:19:26;101890.31;;;17.17;53.87
21706;BME280;11014;53.076;18.208;2023-05-14T06:21:54;101890.50;;;17.27;53.17
21706;BME280;11014;53.076;18.208;2023-05-14T06:24:23;101890.22;;;17.40;53.25
21706;BME280;11014;53.076;18.208;2023-05-14T06:26:51;101897.59;;;17.56;52.89
21706;BME280;11014;53.076;18.208;2023-05-14T06:29:20;101895.59;;;17.68;51.44
21706;BME280;11014;53.076;18.208;2023-05-14T06:31:48;101896.34;;;17.81;51.27
21706;BME280;11014;53.076;18.208;2023-05-14T06:34:16;101893.22;;;17.89;50.61
21706;BME280;11014;53.076;18.208;2023-05-14T06:36:45;101905.22;;;17.93;50.44
21706;BME280;11014;53.076;18.208;2023-05-14T06:39:14;101900.97;;;17.97;50.63
21706;BME280;11014;53.076;18.208;2023-05-14T06:41:43;101885.28;;;18.04;51.22
21706;BME280;11014;53.076;18.208;2023-05-14T06:44:18;101892.53;;;18.15;51.04
21706;BME280;11014;53.076;18.208;2023-05-14T06:46:46;101893.47;;;18.25;50.56
21706;BME280;11014;53.076;18.208;2023-05-14T06:49:15;101892.63;;;18.42;49.91
21706;BME280;11014;53.076;18.208;2023-05-14T06:51:44;101890.16;;;18.57;49.45
21706;BME280;11014;53.076;18.208;2023-05-14T06:54:13;101887.03;;;18.70;48.12
21706;BME280;11014;53.076;18.208;2023-05-14T06:56:41;101884.75;;;18.83;48.50
21706;BME280;11014;53.076;18.208;2023-05-14T06:59:10;101887.66;;;18.99;47.88
21706;BME280;11014;53.076;18.208;2023-05-14T07:01:38;101877.97;;;19.13;47.15
21706;BME280;11014;53.076;18.208;2023-05-14T07:04:07;101885.78;;;19.26;47.20
21706;BME280;11014;53.076;18.208;2023-05-14T07:06:36;101876.09;;;19.40;46.40
21706;BME280;11014;53.076;18.208;2023-05-14T07:09:05;101876.78;;;19.52;46.51
21706;BME280;11014;53.076;18.208;2023-05-14T07:14:54;101861.47;;;19.78;45.36
21706;BME280;11014;53.076;18.208;2023-05-14T07:17:27;101863.94;;;19.84;45.25
21706;BME280;11014;53.076;18.208;2023-05-14T07:19:59;101856.91;;;19.93;46.11
21706;BME280;11014;53.076;18.208;2023-05-14T07:22:28;101858.31;;;20.01;45.30
21706;BME280;11014;53.076;18.208;2023-05-14T07:28:14;101852.78;;;20.28;43.13
21706;BME280;11014;53.076;18.208;2023-05-14T07:30:43;101848.19;;;20.38;44.38
21706;BME280;11014;53.076;18.208;2023-05-14T07:33:11;101840.34;;;20.52;44.48
21706;BME280;11014;53.076;18.208;2023-05-14T07:35:40;101838.50;;;20.62;43.29
21706;BME280;11014;53.076;18.208;2023-05-14T07:38:09;101830.56;;;20.71;43.79
21706;BME280;11014;53.076;18.208;2023-05-14T07:40:38;101832.25;;;20.82;42.71
21706;BME280;11014;53.076;18.208;2023-05-14T07:43:07;101828.97;;;20.90;43.65
21706;BME280;11014;53.076;18.208;2023-05-14T07:45:37;101834.19;;;21.02;43.42
21706;BME280;11014;53.076;18.208;2023-05-14T07:48:08;101821.97;;;21.40;42.38
21706;BME280;11014;53.076;18.208;2023-05-14T07:50:39;101821.16;;;21.24;42.16
21706;BME280;11014;53.076;18.208;2023-05-14T07:53:08;101821.44;;;21.33;41.53
21706;BME280;11014;53.076;18.208;2023-05-14T07:55:36;101815.69;;;21.44;41.57
21706;BME280;11014;53.076;18.208;2023-05-14T07:58:04;101815.41;;;21.56;41.88
21706;BME280;11014;53.076;18.208;2023-05-14T08:00:33;101808.56;;;21.68;42.22
21706;BME280;11014;53.076;18.208;2023-05-14T08:03:02;101806.63;;;21.84;42.08
21706;BME280;11014;53.076;18.208;2023-05-14T08:05:56;101799.44;;;22.13;40.27
21706;BME280;11014;53.076;18.208;2023-05-14T08:08:24;101810.41;;;22.13;40.05
21706;BME280;11014;53.076;18.208;2023-05-14T08:11:19;101803.75;;;22.39;39.99
21706;BME280;11014;53.076;18.208;2023-05-14T08:13:50;101800.47;;;22.37;40.38
21706;BME280;11014;53.076;18.208;2023-05-14T08:16:18;101792.47;;;22.46;40.01
21706;BME280;11014;53.076;18.208;2023-05-14T08:18:47;101793.53;;;22.55;39.66
21706;BME280;11014;53.076;18.208;2023-05-14T08:21:15;101791.00;;;22.69;39.11
21706;BME280;11014;53.076;18.208;2023-05-14T08:23:44;101790.94;;;22.84;39.44
21706;BME280;11014;53.076;18.208;2023-05-14T08:26:14;101783.69;;;22.98;38.87
21706;BME280;11014;53.076;18.208;2023-05-14T08:28:43;101782.50;;;23.14;38.72
21706;BME280;11014;53.076;18.208;2023-05-14T08:31:11;101781.84;;;23.27;38.34
21706;BME280;11014;53.076;18.208;2023-05-14T08:33:41;101772.16;;;23.40;37.43
21706;BME280;11014;53.076;18.208;2023-05-14T08:36:10;101766.28;;;23.51;37.91
21706;BME280;11014;53.076;18.208;2023-05-14T08:38:39;101765.09;;;23.63;36.82
21706;BME280;11014;53.076;18.208;2023-05-14T08:41:11;101764.97;;;23.73;36.78
21706;BME280;11014;53.076;18.208;2023-05-14T08:43:56;101752.78;;;23.84;36.78
21706;BME280;11014;53.076;18.208;2023-05-14T08:46:29;101754.59;;;23.93;35.77
21706;BME280;11014;53.076;18.208;2023-05-14T08:49:39;101759.59;;;24.15;34.37
21706;BME280;11014;53.076;18.208;2023-05-14T08:52:19;101747.41;;;24.21;34.37
21706;BME280;11014;53.076;18.208;2023-05-14T08:54:51;101748.47;;;24.25;34.29
21706;BME280;11014;53.076;18.208;2023-05-14T08:57:21;101737.66;;;24.34;33.21
21706;BME280;11014;53.076;18.208;2023-05-14T08:59:54;101742.63;;;24.32;33.42
21706;BME280;11014;53.076;18.208;2023-05-14T09:02:26;101736.91;;;24.28;33.94
21706;BME280;11014;53.076;18.208;2023-05-14T09:04:58;101735.09;;;24.37;34.48
21706;BME280;11014;53.076;18.208;2023-05-14T09:07:27;101736.25;;;24.55;33.19
21706;BME280;11014;53.076;18.208;2023-05-14T09:09:55;101734.88;;;24.71;33.29
21706;BME280;11014;53.076;18.208;2023-05-14T09:12:24;101716.78;;;24.89;32.82
21706;BME280;11014;53.076;18.208;2023-05-14T09:14:53;101722.13;;;24.99;30.83
21706;BME280;11014;53.076;18.208;2023-05-14T09:17:25;101721.00;;;25.00;30.48
21706;BME280;11014;53.076;18.208;2023-05-14T09:20:03;101715.50;;;25.00;31.13
21706;BME280;11014;53.076;18.208;2023-05-14T09:22:33;101716.13;;;24.97;31.09
21706;BME280;11014;53.076;18.208;2023-05-14T09:25:05;101716.13;;;24.97;29.85
21706;BME280;11014;53.076;18.208;2023-05-14T09:27:34;101703.69;;;24.99;29.95
21706;BME280;11014;53.076;18.208;2023-05-14T09:30:11;101713.50;;;25.05;30.52
21706;BME280;11014;53.076;18.208;2023-05-14T09:32:43;101720.22;;;25.13;30.05
21706;BME280;11014;53.076;18.208;2023-05-14T09:35:19;101720.13;;;25.18;29.64
21706;BME280;11014;53.076;18.208;2023-05-14T09:37:49;101706.81;;;25.25;29.69
21706;BME280;11014;53.076;18.208;2023-05-14T09:40:22;101715.69;;;25.35;28.86
21706;BME280;11014;53.076;18.208;2023-05-14T09:42:53;101703.63;;;25.50;30.54
21706;BME280;11014;53.076;18.208;2023-05-14T09:45:25;101702.09;;;25.71;29.16
21706;BME280;11014;53.076;18.208;2023-05-14T09:48:19;101706.06;;;26.06;29.38
21706;BME280;11014;53.076;18.208;2023-05-14T09:50:50;101697.50;;;26.08;26.71
21706;BME280;11014;53.076;18.208;2023-05-14T09:53:19;101698.53;;;26.12;26.92
21706;BME280;11014;53.076;18.208;2023-05-14T09:55:49;101694.03;;;26.16;26.44
21706;BME280;11014;53.076;18.208;2023-05-14T09:58:17;101687.69;;;26.29;25.87
21706;BME280;11014;53.076;18.208;2023-05-14T10:00:46;101695.63;;;26.44;26.20
21706;BME280;11014;53.076;18.208;2023-05-14T10:03:16;101683.09;;;26.60;25.52
21706;BME280;11014;53.076;18.208;2023-05-14T10:05:48;101682.34;;;26.68;26.77
21706;BME280;11014;53.076;18.208;2023-05-14T10:08:32;101668.94;;;26.75;25.65
21706;BME280;11014;53.076;18.208;2023-05-14T10:11:05;101672.97;;;26.69;27.25
21706;BME280;11014;53.076;18.208;2023-05-14T10:13:38;101667.22;;;26.79;27.71
21706;BME280;11014;53.076;18.208;2023-05-14T10:16:20;101669.28;;;26.96;26.63
21706;BME280;11014;53.076;18.208;2023-05-14T10:18:55;101664.66;;;27.14;25.16
21706;BME280;11014;53.076;18.208;2023-05-14T10:21:28;101661.13;;;27.22;25.77
21706;BME280;11014;53.076;18.208;2023-05-14T10:23:58;101657.94;;;27.28;25.18
21706;BME280;11014;53.076;18.208;2023-05-14T10:26:29;101654.19;;;27.24;25.12
21706;BME280;11014;53.076;18.208;2023-05-14T10:28:58;101645.75;;;27.21;25.25
21706;BME280;11014;53.076;18.208;2023-05-14T10:37:03;101636.88;;;27.01;24.25
21706;BME280;11014;53.076;18.208;2023-05-14T10:39:51;101647.88;;;27.24;24.25
21706;BME280;11014;53.076;18.208;2023-05-14T10:42:37;101644.44;;;27.18;23.24
21706;BME280;11014;53.076;18.208;2023-05-14T10:45:12;101636.47;;;27.17;23.87
21706;BME280;11014;53.076;18.208;2023-05-14T10:47:43;101629.00;;;27.17;24.16
21706;BME280;11014;53.076;18.208;2023-05-14T10:50:14;101620.09;;;27.20;24.27
21706;BME280;11014;53.076;18.208;2023-05-14T10:52:43;101627.69;;;27.15;24.39
21706;BME280;11014;53.076;18.208;2023-05-14T10:55:14;101617.47;;;27.15;24.70
21706;BME280;11014;53.076;18.208;2023-05-14T10:57:45;101608.88;;;27.17;24.37
21706;BME280;11014;53.076;18.208;2023-05-14T11:00:14;101611.38;;;27.27;24.74
21706;BME280;11014;53.076;18.208;2023-05-14T11:02:44;101610.31;;;27.45;25.02
21706;BME280;11014;53.076;18.208;2023-05-14T11:05:15;101606.47;;;27.63;25.20
21706;BME280;11014;53.076;18.208;2023-05-14T11:07:47;101607.47;;;27.67;24.53
21706;BME280;11014;53.076;18.208;2023-05-14T11:10:22;101610.38;;;27.62;24.78
21706;BME280;11014;53.076;18.208;2023-05-14T11:12:56;101611.03;;;27.59;25.05
21706;BME280;11014;53.076;18.208;2023-05-14T11:25:50;101573.41;;;27.97;24.05
21706;BME280;11014;53.076;18.208;2023-05-14T11:29:07;101579.28;;;28.04;24.56
21706;BME280;11014;53.076;18.208;2023-05-14T11:32:32;101582.00;;;27.96;24.29
21706;BME280;11014;53.076;18.208;2023-05-14T11:38:52;101573.41;;;28.14;22.95
21706;BME280;11014;53.076;18.208;2023-05-14T11:41:24;101566.41;;;28.17;22.55
21706;BME280;11014;53.076;18.208;2023-05-14T11:43:55;101551.94;;;28.29;22.42
21706;BME280;11014;53.076;18.208;2023-05-14T11:46:59;101549.81;;;28.43;25.04
21706;BME280;11014;53.076;18.208;2023-05-14T11:50:12;101544.72;;;28.79;22.52
21706;BME280;11014;53.076;18.208;2023-05-14T11:53:40;101537.31;;;29.00;21.90
21706;BME280;11014;53.076;18.208;2023-05-14T11:56:40;101531.66;;;28.88;23.07
21706;BME280;11014;53.076;18.208;2023-05-14T11:59:55;101549.06;;;28.89;23.21
21706;BME280;11014;53.076;18.208;2023-05-14T12:25:11;101511.09;;;29.06;21.08
21706;BME280;11014;53.076;18.208;2023-05-14T12:29:13;101513.75;;;28.94;21.80
21706;BME280;11014;53.076;18.208;2023-05-14T12:36:17;101519.28;;;29.32;21.69
21706;BME280;11014;53.076;18.208;2023-05-14T12:44:03;101490.44;;;33.85;18.88
21706;BME280;11014;53.076;18.208;2023-05-14T12:52:04;101491.53;;;34.87;17.60
21706;BME280;11014;53.076;18.208;2023-05-14T12:54:44;101487.56;;;33.62;17.41
21706;BME280;11014;53.076;18.208;2023-05-14T12:57:12;101490.91;;;32.70;18.37
21706;BME280;11014;53.076;18.208;2023-05-14T12:59:41;101478.56;;;31.97;19.40
21706;BME280;11014;53.076;18.208;2023-05-14T13:02:10;101469.44;;;31.44;19.53
21706;BME280;11014;53.076;18.208;2023-05-14T13:04:48;101473.16;;;31.48;20.06
21706;BME280;11014;53.076;18.208;2023-05-14T13:07:20;101462.38;;;31.35;19.87
21706;BME280;11014;53.076;18.208;2023-05-14T13:09:50;101464.38;;;31.22;20.29
21706;BME280;11014;53.076;18.208;2023-05-14T13:12:18;101460.34;;;31.20;20.75
21706;BME280;11014;53.076;18.208;2023-05-14T13:14:51;101463.94;;;31.08;20.65
21706;BME280;11014;53.076;18.208;2023-05-14T13:17:19;101466.34;;;30.85;20.17
21706;BME280;11014;53.076;18.208;2023-05-14T13:19:48;101467.47;;;30.48;21.09
21706;BME280;11014;53.076;18.208;2023-05-14T13:22:16;101455.25;;;30.16;20.75
21706;BME280;11014;53.076;18.208;2023-05-14T13:24:46;101452.75;;;30.35;20.76
21706;BME280;11014;53.076;18.208;2023-05-14T13:27:14;101449.09;;;30.43;21.26
21706;BME280;11014;53.076;18.208;2023-05-14T13:29:43;101450.94;;;30.39;20.95
21706;BME280;11014;53.076;18.208;2023-05-14T13:32:11;101441.97;;;30.22;20.58
21706;BME280;11014;53.076;18.208;2023-05-14T13:34:40;101449.19;;;30.02;20.42
21706;BME280;11014;53.076;18.208;2023-05-14T13:37:11;101442.06;;;29.80;20.61
21706;BME280;11014;53.076;18.208;2023-05-14T13:39:43;101443.47;;;29.66;20.84
21706;BME280;11014;53.076;18.208;2023-05-14T13:42:11;101440.44;;;29.59;20.91
21706;BME280;11014;53.076;18.208;2023-05-14T13:44:40;101442.94;;;29.52;21.60
21706;BME280;11014;53.076;18.208;2023-05-14T13:47:08;101437.47;;;29.43;21.08
21706;BME280;11014;53.076;18.208;2023-05-14T13:49:38;101432.06;;;29.47;20.72
21706;BME280;11014;53.076;18.208;2023-05-14T13:52:08;101435.19;;;29.45;21.74
21706;BME280;11014;53.076;18.208;2023-05-14T13:54:37;101430.91;;;29.27;21.32
21706;BME280;11014;53.076;18.208;2023-05-14T13:57:05;101427.44;;;29.09;21.75
21706;BME280;11014;53.076;18.208;2023-05-14T13:59:36;101418.38;;;29.00;22.46
21706;BME280;11014;53.076;18.208;2023-05-14T14:02:21;101408.38;;;28.87;22.31
21706;BME280;11014;53.076;18.208;2023-05-14T14:04:51;101409.69;;;28.81;22.55
21706;BME280;11014;53.076;18.208;2023-05-14T14:07:22;101414.28;;;28.77;22.60
21706;BME280;11014;53.076;18.208;2023-05-14T14:09:51;101413.31;;;28.73;22.32
21706;BME280;11014;53.076;18.208;2023-05-14T14:12:21;101416.13;;;28.64;21.64
21706;BME280;11014;53.076;18.208;2023-05-14T14:14:50;101413.75;;;28.46;21.95
21706;BME280;11014;53.076;18.208;2023-05-14T14:17:20;101405.19;;;28.39;22.39